createdAt,value
2018-12-24T00:01:17.595Z,99.90
2018-12-24T00:03:48.783Z,99.90
2018-12-24T00:06:19.006Z,99.90
2018-12-24T00:08:49.103Z,99.90
2018-12-24T00:11:19.237Z,99.90
2018-12-24T00:13:49.408Z,99.90
2018-12-24T00:16:19.503Z,99.90
2018-12-24T00:18:49.640Z,99.90
2018-12-24T00:21:20.055Z,99.90
2018-12-24T00:23:50.192Z,99.90
2018-12-24T00:26:20.326Z,99.90
2018-12-24T00:28:50.467Z,99.90
2018-12-24T00:31:20.599Z,99.90
2018-12-24T00:33:50.732Z,99.90
2018-12-24T00:36:20.932Z,99.90
2018-12-24T00:38:51.061Z,99.90
2018-12-24T00:41:21.152Z,99.90
2018-12-24T00:43:51.307Z,99.90
2018-12-24T00:46:21.458Z,99.90
2018-12-24T00:48:51.584Z,99.90
2018-12-24T00:51:21.741Z,99.90
2018-12-24T00:53:51.855Z,99.90
2018-12-24T00:56:21.990Z,99.90
2018-12-24T00:58:52.174Z,99.90
2018-12-24T01:01:22.259Z,99.90
2018-12-24T01:03:52.408Z,99.90
2018-12-24T01:06:22.763Z,99.90
2018-12-24T01:08:52.920Z,99.90
2018-12-24T01:11:23.067Z,99.90
2018-12-24T01:13:53.278Z,99.90
2018-12-24T01:16:23.452Z,99.90
2018-12-24T01:18:53.583Z,99.90
2018-12-24T01:21:23.750Z,99.90
2018-12-24T01:23:53.942Z,99.90
2018-12-24T01:26:24.039Z,99.90
2018-12-24T01:28:54.276Z,99.90
2018-12-24T01:31:24.474Z,99.90
2018-12-24T01:33:54.662Z,99.90
2018-12-24T01:36:24.759Z,99.90
2018-12-24T01:38:54.966Z,99.90
2018-12-24T01:41:25.550Z,99.90
2018-12-24T01:43:55.695Z,99.90
2018-12-24T01:46:25.850Z,99.90
2018-12-24T01:48:55.974Z,99.90
2018-12-24T01:51:26.166Z,99.90
2018-12-24T01:53:56.275Z,99.90
2018-12-24T01:56:26.402Z,99.90
2018-12-24T01:58:56.535Z,99.90
2018-12-24T02:01:26.631Z,99.90
2018-12-24T02:03:56.755Z,99.90
2018-12-24T02:06:26.909Z,99.90
2018-12-24T02:08:57.074Z,99.90
2018-12-24T02:11:27.218Z,99.90
2018-12-24T02:13:57.382Z,99.90
2018-12-24T02:16:27.584Z,99.90
2018-12-24T02:18:57.722Z,99.90
2018-12-24T02:21:27.816Z,99.90
2018-12-24T02:23:58.394Z,99.90
2018-12-24T02:26:28.551Z,99.90
2018-12-24T02:28:59.048Z,99.90
2018-12-24T02:31:29.163Z,99.90
2018-12-24T02:33:59.330Z,99.90
2018-12-24T02:36:29.539Z,99.90
2018-12-24T02:38:59.622Z,99.90
2018-12-24T02:41:29.789Z,99.90
2018-12-24T02:43:59.975Z,99.90
2018-12-24T02:46:30.107Z,99.90
2018-12-24T02:49:00.194Z,99.90
2018-12-24T02:51:30.378Z,99.90
2018-12-24T02:54:00.545Z,99.90
2018-12-24T02:56:30.675Z,99.90
2018-12-24T02:59:00.819Z,99.90
2018-12-24T03:01:31.006Z,99.90
2018-12-24T03:04:01.138Z,99.90
2018-12-24T03:06:31.235Z,99.90
2018-12-24T03:09:01.411Z,99.90
2018-12-24T03:11:31.851Z,99.90
2018-12-24T03:14:01.983Z,99.90
2018-12-24T03:16:32.494Z,99.90
2018-12-24T03:19:02.577Z,99.90
2018-12-24T03:21:32.712Z,99.90
2018-12-24T03:24:02.890Z,99.90
2018-12-24T03:26:32.968Z,99.90
2018-12-24T03:29:03.137Z,99.90
2018-12-24T03:31:33.263Z,99.90
2018-12-24T03:34:03.386Z,99.90
2018-12-24T03:36:33.907Z,99.90
2018-12-24T03:39:04.678Z,99.90
2018-12-24T03:41:34.864Z,99.90
2018-12-24T03:44:04.980Z,99.90
2018-12-24T03:46:35.115Z,99.90
2018-12-24T03:49:05.290Z,99.90
2018-12-24T03:51:35.398Z,99.90
2018-12-24T03:54:05.500Z,99.90
2018-12-24T03:56:35.687Z,99.90
2018-12-24T03:59:05.781Z,99.90
2018-12-24T04:01:35.932Z,99.90
2018-12-24T04:04:07.582Z,99.90
2018-12-24T04:06:37.670Z,99.90
2018-12-24T04:09:08.244Z,99.90
2018-12-24T04:11:38.442Z,99.90
2018-12-24T04:14:08.560Z,99.90
2018-12-24T04:16:38.663Z,99.90
2018-12-24T04:19:08.839Z,99.90
2018-12-24T04:21:38.991Z,99.90
2018-12-24T04:24:09.082Z,99.90
2018-12-24T04:26:39.192Z,99.90
2018-12-24T04:29:09.338Z,99.90
2018-12-24T04:31:39.490Z,99.90
2018-12-24T04:34:10.700Z,99.90
2018-12-24T04:36:40.875Z,99.90
2018-12-24T04:39:10.971Z,99.90
2018-12-24T04:41:41.106Z,99.90
2018-12-24T04:44:11.294Z,99.90
2018-12-24T04:46:41.433Z,99.90
2018-12-24T04:49:11.540Z,99.90
2018-12-24T04:51:41.707Z,99.90
2018-12-24T04:54:11.881Z,99.90
2018-12-24T04:56:42.017Z,99.90
2018-12-24T04:59:12.113Z,99.90
2018-12-24T05:01:42.307Z,99.90
2018-12-24T05:04:11.992Z,99.90
2018-12-24T05:06:42.142Z,99.90
2018-12-24T05:09:12.287Z,99.90
2018-12-24T05:11:42.456Z,99.90
2018-12-24T05:14:12.604Z,99.90
2018-12-24T05:16:42.774Z,99.90
2018-12-24T05:19:12.906Z,99.90
2018-12-24T05:21:43.055Z,99.90
2018-12-24T05:24:13.211Z,99.90
2018-12-24T05:26:43.306Z,99.90
2018-12-24T05:29:13.452Z,99.90
2018-12-24T05:31:43.587Z,99.90
2018-12-24T05:34:13.755Z,99.90
2018-12-24T05:36:43.887Z,99.90
2018-12-24T05:39:14.099Z,99.90
2018-12-24T05:41:44.230Z,99.90
2018-12-24T05:44:14.372Z,99.90
2018-12-24T05:46:44.593Z,99.90
2018-12-24T05:49:14.696Z,99.90
2018-12-24T05:51:44.919Z,99.90
2018-12-24T05:54:15.114Z,99.90
2018-12-24T05:56:45.247Z,99.90
2018-12-24T05:59:15.406Z,99.90
2018-12-24T06:01:45.534Z,99.90
2018-12-24T06:04:15.719Z,99.90
2018-12-24T06:06:45.854Z,99.90
2018-12-24T06:09:15.988Z,99.90
2018-12-24T06:11:46.176Z,99.90
2018-12-24T06:14:16.307Z,99.90
2018-12-24T06:16:46.491Z,99.90
2018-12-24T06:19:17.963Z,99.90
2018-12-24T06:21:48.098Z,99.90
2018-12-24T06:24:18.283Z,99.90
2018-12-24T06:26:48.415Z,99.90
2018-12-24T06:29:18.519Z,99.90
2018-12-24T06:31:48.734Z,99.90
2018-12-24T06:34:18.814Z,99.90
2018-12-24T06:36:48.938Z,99.90
2018-12-24T06:39:19.102Z,99.90
2018-12-24T06:41:49.210Z,99.90
2018-12-24T06:44:19.307Z,99.90
2018-12-24T06:46:49.463Z,99.90
2018-12-24T06:49:19.618Z,99.90
2018-12-24T06:51:49.700Z,99.90
2018-12-24T06:54:20.387Z,99.90
2018-12-24T06:56:51.027Z,99.90
2018-12-24T06:59:21.174Z,99.90
2018-12-24T07:01:51.304Z,99.90
2018-12-24T07:04:21.419Z,99.90
2018-12-24T07:06:51.586Z,99.90
2018-12-24T07:09:21.684Z,99.90
2018-12-24T07:11:51.784Z,99.90
2018-12-24T07:14:22.144Z,99.90
2018-12-24T07:16:52.315Z,99.90
2018-12-24T07:19:22.434Z,99.90
2018-12-24T07:21:52.610Z,99.90
2018-12-24T07:24:23.203Z,99.90
2018-12-24T07:26:53.514Z,99.90
2018-12-24T07:29:23.710Z,99.90
2018-12-24T07:31:53.855Z,99.90
2018-12-24T07:34:32.182Z,99.90
2018-12-24T07:36:55.905Z,99.90
2018-12-24T07:39:26.019Z,99.90
2018-12-24T07:41:56.651Z,99.90
2018-12-24T07:44:26.899Z,99.90
2018-12-24T07:46:56.995Z,99.90
2018-12-24T07:49:27.628Z,99.90
2018-12-24T07:51:57.800Z,99.90
2018-12-24T07:54:28.667Z,99.90
2018-12-24T07:56:58.815Z,99.90
2018-12-24T07:59:28.944Z,99.90
2018-12-24T08:01:59.098Z,99.90
2018-12-24T08:04:29.268Z,99.90
2018-12-24T08:06:59.409Z,99.90
2018-12-24T08:09:29.570Z,99.90
2018-12-24T08:11:59.759Z,99.90
2018-12-24T08:14:33.252Z,99.90
2018-12-24T08:17:01.629Z,99.90
2018-12-24T08:19:31.766Z,99.90
2018-12-24T08:22:01.936Z,99.90
2018-12-24T08:24:32.056Z,99.90
2018-12-24T08:27:02.190Z,99.90
2018-12-24T08:29:32.346Z,99.90
2018-12-24T08:32:02.530Z,99.90
2018-12-24T08:34:32.637Z,99.90
2018-12-24T08:37:02.780Z,99.90
2018-12-24T08:39:32.907Z,99.90
2018-12-24T08:42:03.106Z,99.90
2018-12-24T08:44:41.776Z,99.90
2018-12-24T08:47:05.007Z,99.90
2018-12-24T08:49:35.098Z,99.90
2018-12-24T08:52:05.237Z,99.90
2018-12-24T08:54:35.355Z,99.90
2018-12-24T08:57:05.527Z,99.90
2018-12-24T08:59:35.677Z,99.90
2018-12-24T09:02:05.858Z,99.90
2018-12-24T09:04:35.948Z,99.90
2018-12-24T09:07:06.027Z,99.90
2018-12-24T09:09:36.247Z,99.90
2018-12-24T09:12:08.746Z,99.90
2018-12-24T09:14:38.839Z,99.90
2018-12-24T09:17:09.039Z,99.90
2018-12-24T09:19:39.319Z,99.90
2018-12-24T09:22:09.403Z,99.90
2018-12-24T09:24:39.575Z,99.90
2018-12-24T09:27:09.771Z,99.90
2018-12-24T09:29:40.290Z,99.90
2018-12-24T09:32:10.460Z,99.90
2018-12-24T09:34:40.583Z,99.90
2018-12-24T09:37:10.723Z,99.90
2018-12-24T09:39:41.414Z,99.90
2018-12-24T09:42:11.547Z,99.90
2018-12-24T09:44:41.787Z,99.90
2018-12-24T09:47:12.492Z,99.90
2018-12-24T09:49:42.629Z,99.90
2018-12-24T09:52:12.811Z,99.90
2018-12-24T09:54:42.936Z,99.90
2018-12-24T09:57:13.011Z,99.90
2018-12-24T09:59:44.295Z,99.90
2018-12-24T10:02:16.338Z,99.90
2018-12-24T10:04:56.834Z,99.90
2018-12-24T10:07:40.898Z,99.90
2018-12-24T10:10:16.972Z,99.90
2018-12-24T10:12:47.148Z,99.90
2018-12-24T10:15:17.339Z,99.90
2018-12-24T10:17:47.507Z,99.90
2018-12-24T10:20:17.615Z,99.90
2018-12-24T10:22:47.773Z,99.90
2018-12-24T10:25:17.898Z,99.90
2018-12-24T10:27:48.106Z,99.90
2018-12-24T10:30:18.251Z,99.90
2018-12-24T10:32:48.341Z,99.90
2018-12-24T10:35:18.523Z,99.90
2018-12-24T10:37:48.787Z,99.90
2018-12-24T10:40:19.887Z,99.90
2018-12-24T10:42:50.220Z,99.90
2018-12-24T10:45:20.546Z,99.90
2018-12-24T10:47:50.844Z,99.90
2018-12-24T10:50:21.146Z,99.90
2018-12-24T10:52:51.423Z,99.90
2018-12-24T10:55:22.431Z,99.90
2018-12-24T10:57:52.721Z,99.90
2018-12-24T11:00:23.636Z,99.90
2018-12-24T11:02:53.951Z,99.90
2018-12-24T11:05:24.242Z,99.90
2018-12-24T11:07:54.536Z,99.90
2018-12-24T11:10:24.875Z,99.90
2018-12-24T11:12:55.174Z,99.90
2018-12-24T11:15:25.486Z,99.90
2018-12-24T11:17:55.784Z,99.90
2018-12-24T11:20:26.087Z,99.90
2018-12-24T11:22:56.421Z,99.90
2018-12-24T11:25:26.722Z,99.90
2018-12-24T11:27:57.009Z,99.90
2018-12-24T11:30:27.339Z,99.90
2018-12-24T11:32:57.634Z,99.90
2018-12-24T11:35:27.890Z,99.90
2018-12-24T11:37:58.227Z,99.90
2018-12-24T11:40:28.511Z,99.90
2018-12-24T11:42:58.796Z,99.90
2018-12-24T11:45:33.702Z,99.90
2018-12-24T11:48:01.031Z,99.90
2018-12-24T11:50:31.294Z,99.90
2018-12-24T11:53:01.623Z,99.90
2018-12-24T11:55:31.907Z,99.90
2018-12-24T11:58:03.915Z,98.80
2018-12-24T12:00:34.214Z,98.90
2018-12-24T12:03:04.503Z,97.90
2018-12-24T12:05:34.784Z,98.10
2018-12-24T12:08:05.116Z,97.90
2018-12-24T12:10:35.440Z,97.20
2018-12-24T12:13:05.732Z,97.90
2018-12-24T12:15:42.611Z,97.40
2018-12-24T12:18:07.984Z,97.20
2018-12-24T12:20:39.288Z,96.80
2018-12-24T12:23:09.554Z,96.90
2018-12-24T12:25:39.878Z,97.40
2018-12-24T12:28:10.160Z,97.50
2018-12-24T12:30:40.440Z,97.20
2018-12-24T12:33:10.778Z,96.50
2018-12-24T12:35:41.086Z,96.50
2018-12-24T12:38:11.383Z,96.60
2018-12-24T12:40:41.656Z,96.30
2018-12-24T12:43:11.987Z,96.40
2018-12-24T12:45:42.250Z,95.70
2018-12-24T12:48:12.522Z,95.20
2018-12-24T12:50:42.818Z,95.30
2018-12-24T12:53:13.147Z,95.10
2018-12-24T12:55:43.449Z,95.20
2018-12-24T12:58:13.693Z,94.80
2018-12-24T13:01:34.024Z,95.30
2018-12-24T13:04:03.861Z,95.80
2018-12-24T13:06:33.682Z,95.80
2018-12-24T13:09:04.519Z,96.10
2018-12-24T13:11:34.354Z,96.40
2018-12-24T13:14:04.184Z,96.70
2018-12-24T13:16:34.070Z,97.50
2018-12-24T13:19:06.033Z,98.10
2018-12-24T13:21:35.878Z,99.10
2018-12-24T13:24:06.191Z,99.10
2018-12-24T13:26:36.074Z,99.20
2018-12-24T13:29:05.969Z,99.80
2018-12-24T13:31:35.808Z,99.60
2018-12-24T13:34:05.841Z,99.80
2018-12-24T13:36:35.671Z,99.90
2018-12-24T13:39:07.613Z,99.90
2018-12-24T13:41:37.459Z,99.90
2018-12-24T13:44:07.363Z,99.90
2018-12-24T13:46:37.198Z,99.90
2018-12-24T13:49:07.114Z,99.90
2018-12-24T13:51:36.973Z,99.90
2018-12-24T13:54:06.879Z,99.90
2018-12-24T13:56:36.735Z,99.90
2018-12-24T13:59:06.583Z,99.90
2018-12-24T14:01:36.457Z,99.90
2018-12-24T14:04:06.320Z,99.90
2018-12-24T14:06:36.886Z,99.90
2018-12-24T14:09:09.476Z,99.90
2018-12-24T14:11:39.321Z,99.90
2018-12-24T14:14:09.165Z,99.90
2018-12-24T14:16:39.061Z,99.90
2018-12-24T14:19:11.128Z,99.90
2018-12-24T14:21:41.001Z,99.90
2018-12-24T14:24:10.948Z,99.90
2018-12-24T14:26:40.835Z,99.90
2018-12-24T14:29:10.698Z,99.90
2018-12-24T14:31:40.535Z,99.80
2018-12-24T14:34:10.415Z,99.60
2018-12-24T14:36:40.252Z,99.90
2018-12-24T14:39:10.140Z,99.80
2018-12-24T14:41:40.108Z,99.50
2018-12-24T14:44:10.035Z,99.10
2018-12-24T14:46:40.383Z,99.30
2018-12-24T14:49:10.313Z,99.00
2018-12-24T14:51:40.235Z,98.80
2018-12-24T14:54:10.087Z,99.20
2018-12-24T14:56:40.047Z,98.90
2018-12-24T14:59:11.319Z,99.20
2018-12-24T15:01:41.200Z,99.30
2018-12-24T15:04:11.034Z,98.80
2018-12-24T15:06:40.919Z,98.70
2018-12-24T15:09:11.587Z,98.20
2018-12-24T15:11:41.468Z,97.60
2018-12-24T15:14:11.368Z,98.60
2018-12-24T15:16:41.314Z,98.20
2018-12-24T15:19:11.249Z,98.30
2018-12-24T15:21:41.089Z,98.80
2018-12-24T15:24:10.956Z,98.60
2018-12-24T15:26:40.827Z,98.80
2018-12-24T15:29:10.720Z,98.00
2018-12-24T15:31:40.550Z,97.60
2018-12-24T15:34:10.390Z,97.70
2018-12-24T15:36:40.292Z,98.10
2018-12-24T15:39:10.142Z,97.80
2018-12-24T15:41:39.970Z,97.90
2018-12-24T15:44:09.869Z,98.30
2018-12-24T15:46:42.819Z,98.60
2018-12-24T15:49:11.246Z,98.40
2018-12-24T15:51:41.138Z,98.50
2018-12-24T15:54:13.068Z,98.40
2018-12-24T15:56:43.203Z,98.90
2018-12-24T15:59:13.053Z,98.70
2018-12-24T16:01:44.836Z,98.80
2018-12-24T16:04:14.685Z,98.90
2018-12-24T16:06:44.534Z,99.40
2018-12-24T16:09:14.430Z,99.50
2018-12-24T16:11:44.313Z,99.90
2018-12-24T16:14:14.184Z,99.90
2018-12-24T16:16:51.069Z,99.90
2018-12-24T16:19:15.585Z,99.90
2018-12-24T16:21:45.441Z,99.90
2018-12-24T16:24:15.323Z,99.90
2018-12-24T16:26:45.165Z,99.90
2018-12-24T16:29:15.024Z,99.90
2018-12-24T16:31:44.899Z,99.90
2018-12-24T16:34:14.783Z,99.90
2018-12-24T16:36:44.630Z,99.90
2018-12-24T16:39:14.846Z,99.90
2018-12-24T16:41:44.771Z,99.90
2018-12-24T16:44:14.605Z,99.90
2018-12-24T16:46:44.513Z,99.90
2018-12-24T16:49:14.460Z,99.90
2018-12-24T16:51:44.319Z,99.90
2018-12-24T16:54:14.153Z,99.90
2018-12-24T16:56:44.111Z,99.90
2018-12-24T16:59:13.955Z,99.90
2018-12-24T17:01:43.821Z,99.90
2018-12-24T17:04:13.710Z,99.90
2018-12-24T17:06:43.587Z,99.90
2018-12-24T17:09:13.420Z,99.90
2018-12-24T17:11:43.287Z,99.90
2018-12-24T17:14:13.190Z,99.90
2018-12-24T17:16:43.051Z,99.90
2018-12-24T17:19:12.912Z,99.90
2018-12-24T17:21:42.802Z,99.90
2018-12-24T17:24:12.651Z,99.90
2018-12-24T17:26:42.524Z,99.90
2018-12-24T17:29:12.433Z,99.90
2018-12-24T17:31:42.740Z,99.90
2018-12-24T17:34:12.570Z,99.90
2018-12-24T17:36:42.441Z,99.90
2018-12-24T17:39:14.652Z,99.90
2018-12-24T17:41:44.560Z,99.90
2018-12-24T17:44:14.419Z,99.90
2018-12-24T17:46:44.266Z,99.90
2018-12-24T17:49:14.148Z,99.90
2018-12-24T17:51:43.997Z,99.90
2018-12-24T17:54:13.902Z,99.90
2018-12-24T17:56:43.761Z,99.90
2018-12-24T17:59:13.633Z,99.90
2018-12-24T18:01:43.628Z,99.90
2018-12-24T18:04:13.505Z,99.90
2018-12-24T18:06:45.602Z,99.90
2018-12-24T18:09:15.585Z,99.90
2018-12-24T18:11:45.432Z,99.90
2018-12-24T18:14:15.291Z,99.90
2018-12-24T18:16:45.167Z,99.90
2018-12-24T18:19:14.989Z,99.90
2018-12-24T18:21:44.860Z,99.90
2018-12-24T18:24:14.732Z,99.90
2018-12-24T18:26:44.589Z,99.90
2018-12-24T18:29:14.486Z,99.90
2018-12-24T18:31:44.359Z,99.90
2018-12-24T18:34:14.207Z,99.90
2018-12-24T18:36:44.124Z,99.90
2018-12-24T18:39:13.963Z,99.90
2018-12-24T18:41:43.820Z,99.90
2018-12-24T18:44:13.725Z,99.90
2018-12-24T18:46:43.573Z,99.90
2018-12-24T18:49:13.422Z,99.90
2018-12-24T18:51:43.376Z,99.90
2018-12-24T18:54:14.375Z,99.90
2018-12-24T18:56:44.249Z,99.90
2018-12-24T18:59:14.088Z,99.90
2018-12-24T19:01:43.991Z,99.90
2018-12-24T19:04:13.876Z,99.90
2018-12-24T19:06:43.741Z,99.90
2018-12-24T19:09:13.654Z,99.90
2018-12-24T19:11:43.533Z,99.90
2018-12-24T19:14:13.366Z,99.90
2018-12-24T19:16:43.258Z,99.90
2018-12-24T19:19:13.119Z,99.90
2018-12-24T19:21:44.020Z,99.90
2018-12-24T19:24:14.384Z,99.90
2018-12-24T19:26:44.247Z,99.90
2018-12-24T19:29:14.150Z,99.90
2018-12-24T19:31:44.363Z,99.90
2018-12-24T19:34:14.267Z,99.90
2018-12-24T19:36:44.150Z,99.90
2018-12-24T19:39:14.005Z,99.90
2018-12-24T19:41:43.846Z,99.90
2018-12-24T19:44:13.745Z,99.90
2018-12-24T19:46:43.620Z,99.90
2018-12-24T19:49:13.465Z,99.90
2018-12-24T19:51:43.402Z,99.90
2018-12-24T19:54:13.255Z,99.90
2018-12-24T19:56:43.110Z,99.90
2018-12-24T19:59:13.020Z,99.90
2018-12-24T20:01:42.891Z,99.90
2018-12-24T20:04:12.768Z,99.90
2018-12-24T20:06:42.705Z,99.90
2018-12-24T20:09:12.575Z,99.90
2018-12-24T20:11:42.427Z,99.90
2018-12-24T20:14:12.362Z,99.90
2018-12-24T20:16:42.216Z,99.90
2018-12-24T20:19:12.051Z,99.90
2018-12-24T20:21:41.965Z,99.90
2018-12-24T20:24:11.855Z,99.90
2018-12-24T20:26:41.678Z,99.90
2018-12-24T20:29:11.541Z,99.90
2018-12-24T20:31:41.425Z,99.90
2018-12-24T20:34:11.274Z,99.90
2018-12-24T20:36:41.123Z,99.90
2018-12-24T20:39:11.014Z,99.90
2018-12-24T20:41:40.863Z,99.90
2018-12-24T20:44:12.458Z,99.90
2018-12-24T20:46:42.309Z,99.90
2018-12-24T20:49:12.117Z,99.90
2018-12-24T20:51:42.089Z,99.90
2018-12-24T20:54:11.966Z,99.90
2018-12-24T20:56:41.792Z,99.90
2018-12-24T20:59:11.694Z,99.90
2018-12-24T21:01:41.629Z,99.90
2018-12-24T21:04:11.533Z,99.90
2018-12-24T21:06:41.386Z,99.90
2018-12-24T21:09:11.258Z,99.90
2018-12-24T21:11:41.130Z,99.90
2018-12-24T21:14:11.000Z,99.90
2018-12-24T21:16:40.882Z,99.90
2018-12-24T21:19:10.728Z,99.90
2018-12-24T21:21:40.573Z,99.90
2018-12-24T21:24:10.507Z,99.90
2018-12-24T21:26:40.334Z,99.90
2018-12-24T21:29:10.199Z,99.90
2018-12-24T21:31:40.123Z,99.90
2018-12-24T21:34:10.103Z,99.90
2018-12-24T21:36:40.006Z,99.90
2018-12-24T21:39:10.010Z,99.90
2018-12-24T21:41:39.863Z,99.90
2018-12-24T21:44:09.703Z,99.90
2018-12-24T21:46:39.579Z,99.90
2018-12-24T21:49:09.410Z,99.90
2018-12-24T21:51:39.518Z,99.90
2018-12-24T21:54:10.720Z,99.90
2018-12-24T21:56:40.545Z,99.90
2018-12-24T21:59:10.401Z,99.90
2018-12-24T22:01:40.324Z,99.90
2018-12-24T22:04:10.226Z,99.90
2018-12-24T22:06:40.197Z,99.90
2018-12-24T22:09:10.045Z,99.90
2018-12-24T22:11:39.946Z,99.90
2018-12-24T22:14:09.832Z,99.90
2018-12-24T22:16:51.604Z,99.90
2018-12-24T22:19:21.573Z,99.90
2018-12-24T22:21:51.464Z,99.90
2018-12-24T22:24:21.328Z,99.90
2018-12-24T22:26:51.217Z,99.90
2018-12-24T22:29:21.057Z,99.90
2018-12-24T22:31:50.919Z,99.90
2018-12-24T22:34:20.778Z,99.90
2018-12-24T22:36:50.645Z,99.90
2018-12-24T22:39:20.548Z,99.90
2018-12-24T22:41:50.394Z,99.90
2018-12-24T22:44:20.255Z,99.90
2018-12-24T22:46:50.146Z,99.90
2018-12-24T22:49:19.989Z,99.90
2018-12-24T22:51:49.838Z,99.90
2018-12-24T22:54:19.762Z,99.90
2018-12-24T22:56:50.074Z,99.90
2018-12-24T22:59:19.932Z,99.90
2018-12-24T23:01:49.822Z,99.90
2018-12-24T23:04:19.723Z,99.90
2018-12-24T23:06:49.560Z,99.90
2018-12-24T23:09:19.715Z,99.90
2018-12-24T23:11:49.570Z,99.90
2018-12-24T23:14:19.403Z,99.90
2018-12-24T23:16:49.273Z,99.90
2018-12-24T23:19:19.179Z,99.90
2018-12-24T23:21:49.957Z,99.90
2018-12-24T23:24:19.843Z,99.90
2018-12-24T23:26:49.748Z,99.90
2018-12-24T23:29:19.582Z,99.90
2018-12-24T23:31:49.638Z,99.90
2018-12-24T23:34:19.874Z,99.90
2018-12-24T23:36:49.766Z,99.90
2018-12-24T23:39:19.611Z,99.90
2018-12-24T23:41:49.454Z,99.90
2018-12-24T23:44:19.317Z,99.90
2018-12-24T23:46:49.574Z,99.90
2018-12-24T23:49:19.427Z,99.90
2018-12-24T23:51:49.301Z,99.90
2018-12-24T23:54:19.202Z,99.90
2018-12-24T23:56:49.072Z,99.90
2018-12-24T23:59:18.921Z,99.90
